.
WxDataArchive / Data Records for 2006-12-20
2006-12-19 December 2006 2006-12-21

Data Records for Wednesday, 20 December 2006

Time	Temp	Chill	HIndex	Humid	Dewpt	 Wind 	HiWind	WindDir	Rain 	Barom 
-----	----	-----	------	-----	-----	------	------	-------	-----	----- 
00:00	25.4	25.4	25.4	87	22.1	0	0	---	0.00	30.404 
00:05	25.4	25.4	25.4	88	22.4	0	0	---	0.00	30.404 
00:10	25.4	25.4	25.4	88	22.4	0	0	---	0.00	30.404 
00:15	25.4	25.4	25.4	88	22.4	0	0	---	0.00	30.392 
00:20	25.1	25.1	25.1	87	21.8	0	0	---	0.00	30.392 
00:25	25.0	25.0	25.0	88	22.0	0	0	---	0.00	30.392 
00:30	24.8	24.8	24.8	88	21.8	0	0	---	0.00	30.384 
00:35	24.8	24.8	24.8	88	21.8	0	0	---	0.00	30.384 
00:40	24.8	24.8	24.8	88	21.8	0	0	---	0.00	30.384 
00:45	24.8	24.8	24.8	89	22.0	0	0	---	0.00	30.381 
00:50	24.7	24.7	24.7	88	21.7	0	0	---	0.00	30.381 
00:55	24.7	24.7	24.7	89	21.9	0	0	---	0.00	30.381 
01:00	24.7	24.7	24.7	89	21.9	0	0	---	0.00	30.377 
01:05	24.5	24.5	24.5	89	21.7	0	0	---	0.00	30.377 
01:10	24.4	24.4	24.4	89	21.6	0	0	---	0.00	30.377 
01:15	24.4	24.4	24.4	89	21.6	0	0	---	0.00	30.372 
01:20	24.2	24.2	24.2	89	21.4	0	0	---	0.00	30.372 
01:25	24.1	24.1	24.1	89	21.3	0	0	---	0.00	30.372 
01:30	23.9	23.9	23.9	89	21.1	0	0	---	0.00	30.371 
01:35	23.9	23.9	23.9	89	21.1	0	0	---	0.00	30.371 
01:40	23.8	23.8	23.8	89	21.0	0	0	---	0.00	30.371 
01:45	23.6	23.6	23.6	89	20.8	0	0	---	0.00	30.365 
01:50	23.6	23.6	23.6	90	21.1	0	0	---	0.00	30.365 
01:55	23.6	23.6	23.6	90	21.1	0	0	---	0.00	30.365 
02:00	23.5	23.5	23.5	90	21.0	0	0	---	0.00	30.368 
02:05	23.2	23.2	23.2	90	20.7	0	0	---	0.00	30.368 
02:10	23.0	23.0	23.0	90	20.5	0	0	---	0.00	30.368 
02:15	23.0	23.0	23.0	90	20.5	0	0	---	0.00	30.370 
02:20	23.0	23.0	23.0	90	20.5	0	0	---	0.00	30.370 
02:25	23.2	23.2	23.2	91	21.0	0	0	---	0.00	30.370 
02:30	23.0	23.0	23.0	91	20.8	0	0	---	0.00	30.375 
02:35	23.0	23.0	23.0	91	20.8	0	0	---	0.00	30.375 
02:40	22.9	22.9	22.9	91	20.7	0	0	---	0.00	30.375 
02:45	22.9	22.9	22.9	91	20.7	0	0	---	0.00	30.377 
02:50	22.7	22.7	22.7	91	20.5	0	0	---	0.00	30.377 
02:55	22.7	22.7	22.7	91	20.5	0	0	---	0.00	30.377 
03:00	22.7	22.7	22.7	91	20.5	0	0	---	0.00	30.376 
03:05	22.5	22.5	22.5	91	20.3	0	0	---	0.00	30.376 
03:10	22.4	22.4	22.4	91	20.2	0	0	---	0.00	30.376 
03:15	22.2	22.2	22.2	91	20.0	0	0	---	0.00	30.376 
03:20	22.1	22.1	22.1	91	19.9	0	0	---	0.00	30.376 
03:25	21.9	21.9	21.9	91	19.7	0	0	---	0.00	30.376 
03:30	21.6	21.6	21.6	90	19.1	0	0	---	0.00	30.377 
03:35	21.4	21.4	21.4	90	18.9	0	0	---	0.00	30.377 
03:40	21.3	21.3	21.3	90	18.8	0	0	---	0.00	30.377 
03:45	21.1	21.1	21.1	90	18.6	0	0	---	0.00	30.378 
03:50	21.1	21.1	21.1	91	18.9	0	0	---	0.00	30.378 
03:55	21.1	21.1	21.1	91	18.9	0	0	---	0.00	30.378 
04:00	21.1	21.1	21.1	91	18.9	0	0	---	0.00	30.376 
04:05	21.1	21.1	21.1	91	18.9	0	0	---	0.00	30.376 
04:10	21.0	21.0	21.0	91	18.8	0	0	---	0.00	30.376 
04:15	21.0	21.0	21.0	91	18.8	0	0	---	0.00	30.373 
04:20	20.8	20.8	20.8	91	18.6	0	0	---	0.00	30.373 
04:25	20.8	20.8	20.8	91	18.6	0	0	---	0.00	30.373 
04:30	20.6	20.6	20.6	91	18.4	0	0	---	0.00	30.373 
04:35	20.5	20.5	20.5	91	18.3	0	0	---	0.00	30.373 
04:40	20.3	20.3	20.3	91	18.1	0	0	---	0.00	30.373 
04:45	20.2	20.2	20.2	91	18.0	0	0	---	0.00	30.367 
04:50	20.0	20.0	20.0	90	17.5	0	0	---	0.00	30.367 
04:55	19.7	19.7	19.7	90	17.3	0	0	---	0.00	30.367 
05:00	19.5	19.5	19.5	90	17.1	0	0	---	0.00	30.368 
05:05	19.2	19.2	19.2	90	16.8	0	0	---	0.00	30.368 
05:10	19.2	19.2	19.2	90	16.8	0	0	---	0.00	30.368 
05:15	19.2	19.2	19.2	90	16.8	0	0	---	0.00	30.374 
05:20	19.2	19.2	19.2	90	16.8	0	0	---	0.00	30.374 
05:25	19.1	19.1	19.1	90	16.7	0	0	---	0.00	30.374 
05:30	18.9	18.9	18.9	90	16.5	0	0	---	0.00	30.371 
05:35	18.8	18.8	18.8	90	16.4	0	0	---	0.00	30.371 
05:40	18.6	18.6	18.6	90	16.2	0	0	---	0.00	30.371 
05:45	18.4	18.4	18.4	90	16.0	0	0	---	0.00	30.375 
05:50	18.3	18.3	18.3	90	15.9	0	0	---	0.00	30.375 
05:55	18.1	18.1	18.1	90	15.7	0	0	---	0.00	30.375 
06:00	18.0	18.0	18.0	90	15.6	0	0	---	0.00	30.372 
06:05	18.1	18.1	18.1	90	15.7	0	0	---	0.00	30.372 
06:10	18.1	18.1	18.1	90	15.7	0	0	---	0.00	30.372 
06:15	18.1	18.1	18.1	90	15.7	0	0	---	0.00	30.371 
06:20	18.1	18.1	18.1	90	15.7	0	0	---	0.00	30.371 
06:25	18.1	18.1	18.1	90	15.7	0	0	---	0.00	30.371 
06:30	18.1	18.1	18.1	90	15.7	0	0	---	0.00	30.367 
06:35	18.3	18.3	18.3	90	15.9	0	0	---	0.00	30.367 
06:40	18.3	18.3	18.3	91	16.1	0	0	---	0.00	30.367 
06:45	18.4	18.4	18.4	91	16.2	0	0	---	0.00	30.374 
06:50	18.4	18.4	18.4	91	16.2	0	0	---	0.00	30.374 
06:55	18.4	18.4	18.4	91	16.2	0	0	---	0.00	30.374 
07:00	18.4	18.4	18.4	91	16.2	0	0	---	0.00	30.377 
07:05	18.4	18.4	18.4	91	16.2	0	0	---	0.00	30.377 
07:10	18.3	18.3	18.3	90	15.9	0	0	---	0.00	30.377 
07:15	18.1	18.1	18.1	90	15.7	0	0	---	0.00	30.376 
07:20	18.1	18.1	18.1	90	15.7	0	0	---	0.00	30.376 
07:25	18.0	18.0	18.0	90	15.6	0	0	---	0.00	30.376 
07:30	18.1	18.1	18.1	90	15.7	0	0	---	0.00	30.380 
07:35	18.1	18.1	18.1	90	15.7	0	0	---	0.00	30.380 
07:40	18.1	18.1	18.1	90	15.7	0	0	---	0.00	30.380 
07:45	18.1	18.1	18.1	90	15.7	0	0	---	0.00	30.375 
07:50	18.1	18.1	18.1	90	15.7	0	0	---	0.00	30.375 
07:55	18.1	18.1	18.1	90	15.7	0	0	---	0.00	30.375 
08:00	18.1	18.1	18.1	90	15.7	0	0	---	0.00	30.364 
08:05	18.1	18.1	18.1	90	15.7	0	0	---	0.00	30.364 
08:10	18.1	18.1	18.1	90	15.7	0	0	---	0.00	30.364 
08:15	18.3	18.3	18.3	91	16.1	0	0	---	0.00	30.363 
08:20	18.4	18.4	18.4	91	16.2	0	0	---	0.00	30.363 
08:25	18.6	18.6	18.6	91	16.4	0	0	---	0.00	30.363 
08:30	18.8	18.8	18.8	91	16.6	0	0	---	0.00	30.372 
08:35	18.9	18.9	18.9	91	16.7	0	0	---	0.00	30.372 
08:40	18.9	18.9	18.9	91	16.7	0	0	---	0.00	30.372 
08:45	19.2	19.2	19.2	91	17.0	0	0	---	0.00	30.373 
08:50	19.4	19.4	19.4	91	17.2	0	0	---	0.00	30.373 
08:55	19.5	19.5	19.5	91	17.3	0	0	---	0.00	30.373 
09:00	19.7	19.7	19.7	91	17.5	0	0	---	0.00	30.376 
09:05	20.2	20.2	20.2	92	18.3	0	0	---	0.00	30.376 
09:10	21.0	21.0	21.0	92	19.0	0	0	---	0.00	30.376 
09:15	21.6	21.6	21.6	93	19.9	0	0	---	0.00	30.372 
09:20	22.5	22.5	22.5	93	20.8	0	0	---	0.00	30.372 
09:25	23.2	23.2	23.2	93	21.5	0	0	---	0.00	30.372 
09:30	23.6	23.6	23.6	94	22.1	0	0	---	0.00	30.376 
09:35	24.4	24.4	24.4	94	22.9	0	0	---	0.00	30.376 
09:40	25.1	25.1	25.1	94	23.6	0	0	---	0.00	30.376 
09:45	25.6	25.6	25.6	94	24.1	0	0	---	0.00	30.380 
09:50	26.1	26.1	26.1	95	24.9	0	0	---	0.00	30.380 
09:55	26.7	26.7	26.7	95	25.5	0	1	248	0.00	30.380 
10:00	27.5	27.5	27.5	95	26.3	0	1	248	0.00	30.378 
10:05	28.2	28.2	28.2	95	27.0	0	0	---	0.00	30.378 
10:10	28.8	28.8	28.8	95	27.6	0	2	248	0.00	30.378 
10:15	29.4	29.4	29.4	95	28.1	0	2	248	0.00	30.384 
10:20	30.0	30.0	30.0	95	28.7	0	3	270	0.00	30.384 
10:25	30.7	30.7	30.7	95	29.4	0	1	270	0.00	30.384 
10:30	31.3	31.3	31.3	95	30.0	0	3	270	0.00	30.382 
10:35	31.8	31.8	31.8	93	30.0	1	3	248	0.00	30.382 
10:40	32.4	32.4	32.4	92	30.3	1	4	248	0.00	30.382 
10:45	32.9	32.9	32.9	88	29.7	2	5	248	0.00	30.370 
10:50	33.5	33.5	33.5	86	29.8	1	2	225	0.00	30.370 
10:55	34.3	34.3	34.3	82	29.4	1	4	90	0.00	30.370 
11:00	34.7	34.7	34.7	80	29.2	1	3	68	0.00	30.349 
11:05	34.9	34.9	34.9	79	29.1	1	3	270	0.00	30.349 
11:10	34.9	34.9	34.9	79	29.1	1	3	248	0.00	30.349 
11:15	35.0	35.0	35.0	78	28.8	1	3	248	0.00	30.344 
11:20	35.0	35.0	35.0	77	28.5	1	4	248	0.00	30.344 
11:25	35.0	35.0	35.0	78	28.8	0	3	248	0.00	30.344 
11:30	35.2	35.2	35.2	79	29.4	0	1	248	0.00	30.335 
11:35	35.3	35.3	35.3	80	29.8	0	2	248	0.00	30.335 
11:40	35.3	35.3	35.3	79	29.4	0	1	248	0.00	30.335 
11:45	35.5	35.5	35.5	78	29.3	0	2	248	0.00	30.331 
11:50	35.8	35.8	35.8	79	29.9	0	1	248	0.00	30.331 
11:55	35.9	35.9	35.9	79	30.0	0	1	248	0.00	30.331 
12:00	36.2	36.2	36.2	79	30.3	0	2	248	0.00	30.320 
12:05	36.3	36.3	36.3	78	30.1	0	2	248	0.00	30.320 
12:10	36.5	36.5	36.5	77	30.0	0	2	180	0.00	30.320 
12:15	36.6	36.6	36.6	76	29.8	0	2	180	0.00	30.313 
12:20	36.8	36.8	36.8	73	29.0	1	3	248	0.00	30.313 
12:25	36.6	36.6	36.6	73	28.8	2	4	248	0.00	30.313 
12:30	36.6	36.6	36.6	73	28.8	2	5	248	0.00	30.307 
12:35	36.8	36.8	36.8	73	29.0	1	4	248	0.00	30.307 
12:40	36.9	36.9	36.9	74	29.4	1	3	248	0.00	30.307 
12:45	37.0	37.0	37.0	73	29.2	1	3	248	0.00	30.297 
12:50	37.3	37.3	37.3	73	29.5	0	2	248	0.00	30.297 
12:55	37.6	37.6	37.6	73	29.7	0	2	22	0.00	30.297 
13:00	37.6	37.6	37.6	73	29.7	1	2	22	0.00	30.283 
13:05	37.6	37.6	37.6	72	29.4	1	3	68	0.00	30.283 
13:10	37.9	37.9	37.9	73	30.0	1	2	68	0.00	30.283 
13:15	38.0	38.0	38.0	71	29.4	1	4	248	0.00	30.281 
13:20	38.3	38.3	38.3	71	29.7	1	2	248	0.00	30.281 
13:25	38.3	38.3	38.3	69	29.0	1	4	248	0.00	30.281 
13:30	38.5	38.5	38.5	71	29.9	1	3	270	0.00	30.274 
13:35	38.6	38.6	38.6	70	29.7	1	3	112	0.00	30.274 
13:40	38.8	38.8	38.8	70	29.9	1	2	112	0.00	30.274 
13:45	39.1	39.1	39.1	72	30.8	0	2	112	0.00	30.265 
13:50	39.1	39.1	39.1	69	29.8	0	2	112	0.00	30.265 
13:55	39.1	39.1	39.1	68	29.4	1	3	248	0.00	30.265 
14:00	39.1	39.1	39.1	69	29.8	1	2	248	0.00	30.255 
14:05	39.1	39.1	39.1	68	29.4	0	2	248	0.00	30.255 
14:10	39.1	39.1	39.1	68	29.4	1	3	248	0.00	30.255 
14:15	39.1	39.1	39.1	69	29.8	0	1	225	0.00	30.245 
14:20	38.9	38.9	38.9	70	30.0	0	1	225	0.00	30.245 
14:25	38.9	38.9	38.9	70	30.0	0	1	225	0.00	30.245 
14:30	38.9	38.9	38.9	70	30.0	0	1	225	0.00	30.241 
14:35	38.9	38.9	38.9	71	30.3	0	1	225	0.00	30.241 
14:40	38.9	38.9	38.9	71	30.3	0	1	225	0.00	30.241 
14:45	38.9	38.9	38.9	71	30.3	0	2	202	0.00	30.236 
14:50	38.8	38.8	38.8	70	29.9	0	2	225	0.00	30.236 
14:55	38.9	38.9	38.9	70	30.0	0	1	158	0.00	30.236 
15:00	38.9	38.9	38.9	70	30.0	0	2	225	0.00	30.233 
15:05	38.9	38.9	38.9	71	30.3	0	1	225	0.00	30.233 
15:10	38.9	38.9	38.9	71	30.3	0	1	202	0.00	30.233 
15:15	38.9	38.9	38.9	71	30.3	0	1	202	0.00	30.228 
15:20	38.9	38.9	38.9	71	30.3	0	1	202	0.00	30.228 
15:25	38.9	38.9	38.9	71	30.3	0	1	202	0.00	30.228 
15:30	38.9	38.9	38.9	72	30.7	0	1	202	0.00	30.225 
15:35	38.9	38.9	38.9	71	30.3	0	1	202	0.00	30.225 
15:40	38.9	38.9	38.9	72	30.7	0	1	202	0.00	30.225 
15:45	38.8	38.8	38.8	73	30.9	0	2	202	0.00	30.224 
15:50	38.8	38.8	38.8	73	30.9	0	1	202	0.00	30.224 
15:55	38.8	38.8	38.8	73	30.9	0	1	202	0.00	30.224 
16:00	38.8	38.8	38.8	73	30.9	0	1	202	0.00	30.229 
16:05	38.6	38.6	38.6	73	30.7	0	1	202	0.00	30.229 
16:10	38.6	38.6	38.6	73	30.7	0	1	202	0.00	30.229 
16:15	38.6	38.6	38.6	73	30.7	0	1	202	0.00	30.233 
16:20	38.6	38.6	38.6	73	30.7	0	1	202	0.00	30.233 
16:25	38.5	38.5	38.5	73	30.6	0	1	112	0.00	30.233 
16:30	38.5	38.5	38.5	74	30.9	0	1	112	0.00	30.234 
16:35	38.5	38.5	38.5	75	31.3	0	1	112	0.00	30.234 
16:40	38.3	38.3	38.3	75	31.1	0	1	112	0.00	30.234 
16:45	38.3	38.3	38.3	75	31.1	0	1	112	0.00	30.233 
16:50	38.2	38.2	38.2	75	31.0	0	1	112	0.00	30.233 
16:55	38.2	38.2	38.2	76	31.3	0	1	112	0.00	30.233 
17:00	38.2	38.2	38.2	77	31.6	0	1	112	0.00	30.238 
17:05	38.0	38.0	38.0	77	31.4	0	0	---	0.00	30.238 
17:10	38.0	38.0	38.0	77	31.4	0	0	---	0.00	30.238 
17:15	38.0	38.0	38.0	77	31.4	0	0	---	0.00	30.244 
17:20	37.9	37.9	37.9	77	31.3	0	0	---	0.00	30.244 
17:25	37.8	37.8	37.8	77	31.2	0	0	---	0.00	30.244 
17:30	37.8	37.8	37.8	78	31.6	0	0	---	0.00	30.254 
17:35	37.6	37.6	37.6	78	31.4	0	0	---	0.00	30.254 
17:40	37.6	37.6	37.6	78	31.4	0	0	---	0.00	30.254 
17:45	37.5	37.5	37.5	79	31.6	0	0	---	0.00	30.257 
17:50	37.5	37.5	37.5	79	31.6	0	1	112	0.00	30.257 
17:55	37.5	37.5	37.5	79	31.6	0	1	112	0.00	30.257 
18:00	37.5	37.5	37.5	79	31.6	0	0	---	0.00	30.260 
18:05	37.6	37.6	37.6	79	31.7	0	0	---	0.00	30.260 
18:10	37.6	37.6	37.6	80	32.0	0	0	---	0.00	30.260 
18:15	37.6	37.6	37.6	79	31.7	0	1	112	0.00	30.257 
18:20	37.8	37.8	37.8	79	31.9	0	1	112	0.00	30.257 
18:25	37.8	37.8	37.8	79	31.9	0	0	---	0.00	30.257 
18:30	37.8	37.8	37.8	79	31.9	0	1	112	0.00	30.260 
18:35	37.8	37.8	37.8	79	31.9	0	0	---	0.00	30.260 
18:40	37.8	37.8	37.8	79	31.9	0	0	---	0.00	30.260 
18:45	37.8	37.8	37.8	80	32.2	0	0	---	0.00	30.272 
18:50	37.6	37.6	37.6	80	32.0	0	0	---	0.00	30.272 
18:55	37.8	37.8	37.8	81	32.5	0	0	---	0.00	30.272 
19:00	37.8	37.8	37.8	81	32.5	0	0	---	0.00	30.272 
19:05	37.8	37.8	37.8	81	32.5	0	0	---	0.00	30.272 
19:10	37.9	37.9	37.9	82	32.9	0	1	112	0.00	30.272 
19:15	37.9	37.9	37.9	82	32.9	0	1	112	0.00	30.272 
19:20	37.9	37.9	37.9	83	33.2	0	0	---	0.00	30.272 
19:25	37.9	37.9	37.9	83	33.2	0	0	---	0.00	30.272 
19:30	37.9	37.9	37.9	83	33.2	0	0	---	0.00	30.271 
19:35	37.9	37.9	37.9	84	33.5	0	2	112	0.01	30.271 
19:40	37.9	37.9	37.9	84	33.5	0	1	112	0.00	30.271 
19:45	37.9	37.9	37.9	84	33.5	0	0	---	0.00	30.271 
19:50	37.9	37.9	37.9	84	33.5	0	1	112	0.00	30.271 
19:55	37.9	37.9	37.9	84	33.5	0	2	112	0.00	30.271 
20:00	37.9	37.9	37.9	84	33.5	0	1	112	0.00	30.272 
20:05	37.9	37.9	37.9	85	33.8	0	1	112	0.00	30.272 
20:10	37.9	37.9	37.9	86	34.1	0	1	112	0.00	30.272 
20:15	37.8	37.8	37.8	86	34.0	0	1	112	0.00	30.271 
20:20	37.8	37.8	37.8	86	34.0	0	0	---	0.00	30.271 
20:25	37.8	37.8	37.8	87	34.3	0	0	---	0.00	30.271 
20:30	37.6	37.6	37.6	87	34.1	0	1	112	0.00	30.271 
20:35	37.6	37.6	37.6	87	34.1	0	0	---	0.00	30.271 
20:40	37.5	37.5	37.5	87	34.0	0	0	---	0.00	30.271 
20:45	37.5	37.5	37.5	88	34.3	0	1	112	0.00	30.267 
20:50	37.5	37.5	37.5	88	34.3	0	0	---	0.00	30.267 
20:55	37.5	37.5	37.5	88	34.3	0	0	---	0.00	30.267 
21:00	37.3	37.3	37.3	88	34.1	0	0	---	0.00	30.267 
21:05	37.3	37.3	37.3	89	34.4	0	0	---	0.00	30.267 
21:10	37.3	37.3	37.3	89	34.4	0	0	---	0.00	30.267 
21:15	37.3	37.3	37.3	89	34.4	0	0	---	0.00	30.263 
21:20	37.3	37.3	37.3	90	34.6	0	0	---	0.00	30.263 
21:25	37.3	37.3	37.3	90	34.6	0	0	---	0.00	30.263 
21:30	37.3	37.3	37.3	90	34.6	0	0	---	0.00	30.264 
21:35	37.3	37.3	37.3	90	34.6	0	0	---	0.00	30.264 
21:40	37.3	37.3	37.3	90	34.6	0	0	---	0.00	30.264 
21:45	37.5	37.5	37.5	90	34.8	0	0	---	0.01	30.267 
21:50	37.5	37.5	37.5	91	35.1	0	0	---	0.00	30.267 
21:55	37.5	37.5	37.5	91	35.1	0	0	---	0.00	30.267 
22:00	37.5	37.5	37.5	91	35.1	0	0	---	0.00	30.262 
22:05	37.5	37.5	37.5	91	35.1	0	0	---	0.00	30.262 
22:10	37.5	37.5	37.5	91	35.1	0	0	---	0.00	30.262 
22:15	37.5	37.5	37.5	91	35.1	0	0	---	0.00	30.255 
22:20	37.5	37.5	37.5	91	35.1	0	0	---	0.00	30.255 
22:25	37.5	37.5	37.5	92	35.4	0	0	---	0.00	30.255 
22:30	37.5	37.5	37.5	92	35.4	0	0	---	0.00	30.258 
22:35	37.5	37.5	37.5	92	35.4	0	0	---	0.01	30.258 
22:40	37.5	37.5	37.5	92	35.4	0	0	---	0.00	30.258 
22:45	37.5	37.5	37.5	92	35.4	0	0	---	0.00	30.258 
22:50	37.6	37.6	37.6	92	35.5	0	0	---	0.00	30.258 
22:55	37.6	37.6	37.6	93	35.8	0	0	---	0.00	30.258 
23:00	37.6	37.6	37.6	93	35.8	0	0	---	0.00	30.257 
23:05	37.6	37.6	37.6	93	35.8	0	0	---	0.00	30.257 
23:10	37.6	37.6	37.6	93	35.8	0	0	---	0.00	30.257 
23:15	37.8	37.8	37.8	93	36.0	0	1	112	0.00	30.255 
23:20	37.8	37.8	37.8	93	36.0	0	0	---	0.00	30.255 
23:25	37.8	37.8	37.8	93	36.0	0	0	---	0.00	30.255 
23:30	37.8	37.8	37.8	93	36.0	0	1	112	0.00	30.254 
23:35	37.8	37.8	37.8	93	36.0	0	1	112	0.00	30.254 
23:40	37.8	37.8	37.8	93	36.0	0	2	112	0.00	30.254 
23:45	37.8	37.8	37.8	93	36.0	0	2	112	0.00	30.245 
23:50	37.6	37.6	37.6	93	35.8	0	1	112	0.00	30.245 
23:55	37.6	37.6	37.6	92	35.5	0	1	112	0.00	30.245 

CoCoRaHS
IN-AL-39
A2 Web Hosting
Creative Commons License
GoDaddy
Look for:

loaded 2017-10-19 14:21:29 • last modified 2010-11-18 10:43:29
Privacy PolicyDisclaimer
• wx.awcolley.com is powered by PmWiki v.2002016 •
• all content (unless otherwise noted) © 2017 A W Colley